PWSweather.com
Personal Weather Stations
Station Observations
IONTARIO88
Lincoln, ON L0R

Lincoln, ON L0R

Lat: 43.1763563, Lon: -79.4719525

Elevation: 297

Station Type: Davis Vantage Pro 2 Plus

http://www.beamsvillewx.ca

High Low Average
Temperature 42.1°F5.6°C 35.4°F1.9°C 38.4°F3.6°C
Dew Point 38.2°F3.4°C 33.0°F0.6°C 35.3°F1.8°C
Winds 6.0 mph 9.7 kmh Calm Calm 3.0 mph ESE4.8 kmh ESE
Wind Gusts 14.0 mph22.5 kmh -- 6.0 mph9.7 kmh
Humidity 92% 85% 88%
Pressure 30.24 in1024.0 mb 30.13 in1020.3 mb -
Precipitation 0.00 in0.0 mm - -
Hour Temp Dew Point Humidity Winds Wind Gusts Pressure Precip Precip Rate Daily Precip Total
12:00 AM 42.1°F5.6°C 38.2°F3.4°C 86% 2.0 mph W3.2 kmh W 5.0 mph8.0 kmh 30.14 in1020.7 mb 0.00 in0.0 mm 0.00 in0.0 mm 0.00 in0.0 mm
12:15 AM 41.9°F5.5°C 37.7°F3.2°C 85% Calm Calm 2.0 mph3.2 kmh 30.14 in1020.7 mb 0.00 in0.0 mm 0.00 in0.0 mm 0.00 in0.0 mm
12:30 AM 41.4°F5.2°C 37.5°F3.1°C 86% 1.0 mph W1.6 kmh W 3.0 mph4.8 kmh 30.13 in1020.3 mb 0.00 in0.0 mm 0.00 in0.0 mm 0.00 in0.0 mm
12:45 AM 40.6°F4.8°C 37.1°F2.8°C 87% Calm Calm 3.0 mph4.8 kmh 30.13 in1020.3 mb 0.00 in0.0 mm 0.00 in0.0 mm 0.00 in0.0 mm
01:00 AM 39.9°F4.4°C 36.7°F2.6°C 88% Calm Calm 2.0 mph3.2 kmh 30.13 in1020.3 mb 0.00 in0.0 mm 0.00 in0.0 mm 0.00 in0.0 mm
01:15 AM 39.9°F4.4°C 36.7°F2.6°C 88% Calm Calm 1.0 mph1.6 kmh 30.13 in1020.3 mb 0.00 in0.0 mm 0.00 in0.0 mm 0.00 in0.0 mm
01:30 AM 39.6°F4.2°C 36.3°F2.4°C 88% Calm Calm 2.0 mph3.2 kmh 30.14 in1020.7 mb 0.00 in0.0 mm 0.00 in0.0 mm 0.00 in0.0 mm
01:45 AM 39.6°F4.2°C 36.3°F2.4°C 88% Calm Calm 1.0 mph1.6 kmh 30.14 in1020.7 mb 0.00 in0.0 mm 0.00 in0.0 mm 0.00 in0.0 mm
02:00 AM 39.0°F3.9°C 35.8°F2.1°C 88% Calm Calm 2.0 mph3.2 kmh 30.15 in1021.0 mb 0.00 in0.0 mm 0.00 in0.0 mm 0.00 in0.0 mm
02:15 AM 38.1°F3.4°C 35.4°F1.9°C 90% 1.0 mph W1.6 kmh W 3.0 mph4.8 kmh 30.15 in1021.0 mb 0.00 in0.0 mm 0.00 in0.0 mm 0.00 in0.0 mm
02:30 AM 38.3°F3.5°C 35.6°F2.0°C 90% 1.0 mph W1.6 kmh W 4.0 mph6.4 kmh 30.15 in1021.0 mb 0.00 in0.0 mm 0.00 in0.0 mm 0.00 in0.0 mm
02:45 AM 38.5°F3.6°C 35.8°F2.1°C 90% Calm Calm 3.0 mph4.8 kmh 30.15 in1021.0 mb 0.00 in0.0 mm 0.00 in0.0 mm 0.00 in0.0 mm
03:00 AM 38.1°F3.4°C 35.4°F1.9°C 90% 1.0 mph W1.6 kmh W 2.0 mph3.2 kmh 30.16 in1021.3 mb 0.00 in0.0 mm 0.00 in0.0 mm 0.00 in0.0 mm
03:15 AM 37.9°F3.3°C 35.0°F1.7°C 89% Calm Calm -- 30.15 in1021.0 mb 0.00 in0.0 mm 0.00 in0.0 mm 0.00 in0.0 mm
03:30 AM 37.6°F3.1°C 34.6°F1.4°C 89% 1.0 mph W1.6 kmh W 2.0 mph3.2 kmh 30.16 in1021.3 mb 0.00 in0.0 mm 0.00 in0.0 mm 0.00 in0.0 mm
03:45 AM 36.5°F2.5°C 33.6°F0.9°C 89% 2.0 mph W3.2 kmh W 3.0 mph4.8 kmh 30.17 in1021.7 mb 0.00 in0.0 mm 0.00 in0.0 mm 0.00 in0.0 mm
04:00 AM 36.3°F2.4°C 33.9°F1.1°C 91% 1.0 mph W1.6 kmh W 3.0 mph4.8 kmh 30.19 in1022.4 mb 0.00 in0.0 mm 0.00 in0.0 mm 0.00 in0.0 mm
04:15 AM 36.7°F2.6°C 34.3°F1.3°C 91% Calm Calm -- 30.20 in1022.7 mb 0.00 in0.0 mm 0.00 in0.0 mm 0.00 in0.0 mm
04:30 AM 36.7°F2.6°C 34.0°F1.1°C 90% Calm Calm -- 30.20 in1022.7 mb 0.00 in0.0 mm 0.00 in0.0 mm 0.00 in0.0 mm
04:45 AM 36.3°F2.4°C 33.7°F0.9°C 90% Calm Calm -- 30.21 in1023.0 mb 0.00 in0.0 mm 0.00 in0.0 mm 0.00 in0.0 mm
05:00 AM 36.3°F2.4°C 33.7°F0.9°C 90% Calm Calm -- 30.22 in1023.4 mb 0.00 in0.0 mm 0.00 in0.0 mm 0.00 in0.0 mm
05:15 AM 36.0°F2.2°C 33.0°F0.6°C 89% 1.0 mph W1.6 kmh W 3.0 mph4.8 kmh 30.21 in1023.0 mb 0.00 in0.0 mm 0.00 in0.0 mm 0.00 in0.0 mm
05:30 AM 35.6°F2.0°C 33.0°F0.6°C 90% 1.0 mph W1.6 kmh W 3.0 mph4.8 kmh 30.21 in1023.0 mb 0.00 in0.0 mm 0.00 in0.0 mm 0.00 in0.0 mm
05:45 AM 35.8°F2.1°C 33.4°F0.8°C 91% 1.0 mph W1.6 kmh W 2.0 mph3.2 kmh 30.21 in1023.0 mb 0.00 in0.0 mm 0.00 in0.0 mm 0.00 in0.0 mm
06:00 AM 35.8°F2.1°C 33.4°F0.8°C 91% 2.0 mph W3.2 kmh W 3.0 mph4.8 kmh 30.21 in1023.0 mb 0.00 in0.0 mm 0.00 in0.0 mm 0.00 in0.0 mm
06:15 AM 35.4°F1.9°C 33.1°F0.6°C 91% Calm Calm 1.0 mph1.6 kmh 30.21 in1023.0 mb 0.00 in0.0 mm 0.00 in0.0 mm 0.00 in0.0 mm
06:30 AM 35.4°F1.9°C 33.1°F0.6°C 91% Calm Calm 3.0 mph4.8 kmh 30.23 in1023.7 mb 0.00 in0.0 mm 0.00 in0.0 mm 0.00 in0.0 mm
06:45 AM 36.3°F2.4°C 34.2°F1.2°C 92% 2.0 mph W3.2 kmh W 5.0 mph8.0 kmh 30.23 in1023.7 mb 0.00 in0.0 mm 0.00 in0.0 mm 0.00 in0.0 mm
07:00 AM 36.7°F2.6°C 34.6°F1.4°C 92% 2.0 mph NW3.2 kmh NW 5.0 mph8.0 kmh 30.23 in1023.7 mb 0.00 in0.0 mm 0.00 in0.0 mm 0.00 in0.0 mm
07:15 AM 36.7°F2.6°C 34.6°F1.4°C 92% 1.0 mph N1.6 kmh N 3.0 mph4.8 kmh 30.23 in1023.7 mb 0.00 in0.0 mm 0.00 in0.0 mm 0.00 in0.0 mm
07:30 AM 36.7°F2.6°C 34.6°F1.4°C 92% 1.0 mph N1.6 kmh N 2.0 mph3.2 kmh 30.21 in1023.0 mb 0.00 in0.0 mm 0.00 in0.0 mm 0.00 in0.0 mm
07:45 AM 36.5°F2.5°C 34.4°F1.3°C 92% 1.0 mph N1.6 kmh N 4.0 mph6.4 kmh 30.22 in1023.4 mb 0.00 in0.0 mm 0.00 in0.0 mm 0.00 in0.0 mm
08:00 AM 36.9°F2.7°C 34.8°F1.6°C 92% Calm Calm 2.0 mph3.2 kmh 30.23 in1023.7 mb 0.00 in0.0 mm 0.00 in0.0 mm 0.00 in0.0 mm
08:15 AM 36.9°F2.7°C 34.5°F1.4°C 91% Calm Calm -- 30.24 in1024.0 mb 0.00 in0.0 mm 0.00 in0.0 mm 0.00 in0.0 mm
08:30 AM 36.9°F2.7°C 34.5°F1.4°C 91% Calm Calm -- 30.24 in1024.0 mb 0.00 in0.0 mm 0.00 in0.0 mm 0.00 in0.0 mm
08:45 AM 36.9°F2.7°C 34.5°F1.4°C 91% 2.0 mph NNE3.2 kmh NNE 9.0 mph14.5 kmh 30.24 in1024.0 mb 0.00 in0.0 mm 0.00 in0.0 mm 0.00 in0.0 mm
09:00 AM 37.2°F2.9°C 34.8°F1.6°C 91% 4.0 mph NE6.4 kmh NE 7.0 mph11.3 kmh 30.24 in1024.0 mb 0.00 in0.0 mm 0.00 in0.0 mm 0.00 in0.0 mm
09:15 AM 37.6°F3.1°C 35.2°F1.8°C 91% 3.0 mph NE4.8 kmh NE 7.0 mph11.3 kmh 30.24 in1024.0 mb 0.00 in0.0 mm 0.00 in0.0 mm 0.00 in0.0 mm
09:30 AM 37.8°F3.2°C 35.4°F1.9°C 91% 3.0 mph NE4.8 kmh NE 8.0 mph12.9 kmh 30.24 in1024.0 mb 0.00 in0.0 mm 0.00 in0.0 mm 0.00 in0.0 mm
09:45 AM 38.1°F3.4°C 35.4°F1.9°C 90% 4.0 mph NE6.4 kmh NE 9.0 mph14.5 kmh 30.24 in1024.0 mb 0.00 in0.0 mm 0.00 in0.0 mm 0.00 in0.0 mm
10:00 AM 38.5°F3.6°C 35.8°F2.1°C 90% 3.0 mph NE4.8 kmh NE 7.0 mph11.3 kmh 30.24 in1024.0 mb 0.00 in0.0 mm 0.00 in0.0 mm 0.00 in0.0 mm
10:15 AM 38.7°F3.7°C 36.0°F2.2°C 90% 4.0 mph NE6.4 kmh NE 8.0 mph12.9 kmh 30.23 in1023.7 mb 0.00 in0.0 mm 0.00 in0.0 mm 0.00 in0.0 mm
10:30 AM 39.0°F3.9°C 36.3°F2.4°C 90% 3.0 mph NE4.8 kmh NE 7.0 mph11.3 kmh 30.23 in1023.7 mb 0.00 in0.0 mm 0.00 in0.0 mm 0.00 in0.0 mm
10:45 AM 39.0°F3.9°C 36.1°F2.3°C 89% 4.0 mph NE6.4 kmh NE 8.0 mph12.9 kmh 30.22 in1023.4 mb 0.00 in0.0 mm 0.00 in0.0 mm 0.00 in0.0 mm
11:00 AM 39.2°F4.0°C 36.2°F2.3°C 89% 4.0 mph NE6.4 kmh NE 8.0 mph12.9 kmh 30.21 in1023.0 mb 0.00 in0.0 mm 0.00 in0.0 mm 0.00 in0.0 mm
11:15 AM 39.6°F4.2°C 36.6°F2.6°C 89% 2.0 mph NE3.2 kmh NE 6.0 mph9.7 kmh 30.21 in1023.0 mb 0.00 in0.0 mm 0.00 in0.0 mm 0.00 in0.0 mm
11:30 AM 39.9°F4.4°C 36.7°F2.6°C 88% 1.0 mph NE1.6 kmh NE 4.0 mph6.4 kmh 30.21 in1023.0 mb 0.00 in0.0 mm 0.00 in0.0 mm 0.00 in0.0 mm
11:45 AM 40.3°F4.6°C 36.7°F2.6°C 87% 2.0 mph NE3.2 kmh NE 6.0 mph9.7 kmh 30.20 in1022.7 mb 0.00 in0.0 mm 0.00 in0.0 mm 0.00 in0.0 mm
12:00 PM 40.5°F4.7°C 36.6°F2.6°C 86% 3.0 mph NE4.8 kmh NE 6.0 mph9.7 kmh 30.20 in1022.7 mb 0.00 in0.0 mm 0.00 in0.0 mm 0.00 in0.0 mm
12:15 PM 40.6°F4.8°C 36.8°F2.7°C 86% 3.0 mph NE4.8 kmh NE 8.0 mph12.9 kmh 30.19 in1022.4 mb 0.00 in0.0 mm 0.00 in0.0 mm 0.00 in0.0 mm
12:30 PM 40.6°F4.8°C 36.5°F2.5°C 85% 4.0 mph NE6.4 kmh NE 8.0 mph12.9 kmh 30.19 in1022.4 mb 0.00 in0.0 mm 0.00 in0.0 mm 0.00 in0.0 mm
12:45 PM 40.6°F4.8°C 36.8°F2.7°C 86% 4.0 mph NE6.4 kmh NE 11.0 mph17.7 kmh 30.18 in1022.0 mb 0.00 in0.0 mm 0.00 in0.0 mm 0.00 in0.0 mm
01:00 PM 40.5°F4.7°C 36.3°F2.4°C 85% 5.0 mph NE8.0 kmh NE 11.0 mph17.7 kmh 30.18 in1022.0 mb 0.00 in0.0 mm 0.00 in0.0 mm 0.00 in0.0 mm
01:15 PM 40.3°F4.6°C 36.1°F2.3°C 85% 6.0 mph NE9.7 kmh NE 14.0 mph22.5 kmh 30.18 in1022.0 mb 0.00 in0.0 mm 0.00 in0.0 mm 0.00 in0.0 mm
01:30 PM 40.5°F4.7°C 36.3°F2.4°C 85% 4.0 mph NE6.4 kmh NE 11.0 mph17.7 kmh 30.18 in1022.0 mb 0.00 in0.0 mm 0.00 in0.0 mm 0.00 in0.0 mm
01:45 PM 39.9°F4.4°C 35.8°F2.1°C 85% 6.0 mph NE9.7 kmh NE 12.0 mph19.3 kmh 30.17 in1021.7 mb 0.00 in0.0 mm 0.00 in0.0 mm 0.00 in0.0 mm
02:00 PM 39.7°F4.3°C 35.6°F2.0°C 85% 6.0 mph NE9.7 kmh NE 12.0 mph19.3 kmh 30.17 in1021.7 mb 0.00 in0.0 mm 0.00 in0.0 mm 0.00 in0.0 mm
02:15 PM 39.6°F4.2°C 35.4°F1.9°C 85% 5.0 mph NE8.0 kmh NE 13.0 mph20.9 kmh 30.16 in1021.3 mb 0.00 in0.0 mm 0.00 in0.0 mm 0.00 in0.0 mm
02:30 PM 39.6°F4.2°C 35.7°F2.1°C 86% 6.0 mph NE9.7 kmh NE 14.0 mph22.5 kmh 30.17 in1021.7 mb 0.00 in0.0 mm 0.00 in0.0 mm 0.00 in0.0 mm
02:45 PM 39.4°F4.1°C 35.5°F1.9°C 86% 6.0 mph NE9.7 kmh NE 13.0 mph20.9 kmh 30.17 in1021.7 mb 0.00 in0.0 mm 0.00 in0.0 mm 0.00 in0.0 mm
03:00 PM 39.4°F4.1°C 35.5°F1.9°C 86% 6.0 mph NE9.7 kmh NE 13.0 mph20.9 kmh 30.17 in1021.7 mb 0.00 in0.0 mm 0.00 in0.0 mm 0.00 in0.0 mm
03:15 PM 39.4°F4.1°C 35.5°F1.9°C 86% 4.0 mph NE6.4 kmh NE 13.0 mph20.9 kmh 30.18 in1022.0 mb 0.00 in0.0 mm 0.00 in0.0 mm 0.00 in0.0 mm
03:30 PM 39.2°F4.0°C 35.4°F1.9°C 86% 4.0 mph NE6.4 kmh NE 8.0 mph12.9 kmh 30.18 in1022.0 mb 0.00 in0.0 mm 0.00 in0.0 mm 0.00 in0.0 mm
03:45 PM 39.2°F4.0°C 35.7°F2.1°C 87% 4.0 mph NE6.4 kmh NE 8.0 mph12.9 kmh 30.18 in1022.0 mb 0.00 in0.0 mm 0.00 in0.0 mm 0.00 in0.0 mm
04:00 PM 39.0°F3.9°C 35.5°F1.9°C 87% 5.0 mph NE8.0 kmh NE 9.0 mph14.5 kmh 30.18 in1022.0 mb 0.00 in0.0 mm 0.00 in0.0 mm 0.00 in0.0 mm
04:15 PM 39.0°F3.9°C 35.8°F2.1°C 88% 3.0 mph NE4.8 kmh NE 8.0 mph12.9 kmh 30.20 in1022.7 mb 0.00 in0.0 mm 0.00 in0.0 mm 0.00 in0.0 mm
04:30 PM 38.8°F3.8°C 35.6°F2.0°C 88% 4.0 mph NE6.4 kmh NE 10.0 mph16.1 kmh 30.20 in1022.7 mb 0.00 in0.0 mm 0.00 in0.0 mm 0.00 in0.0 mm
04:45 PM 38.8°F3.8°C 35.3°F1.8°C 87% 5.0 mph NE8.0 kmh NE 11.0 mph17.7 kmh 30.20 in1022.7 mb 0.00 in0.0 mm 0.00 in0.0 mm 0.00 in0.0 mm
05:00 PM 38.7°F3.7°C 35.1°F1.7°C 87% 5.0 mph NE8.0 kmh NE 10.0 mph16.1 kmh 30.20 in1022.7 mb 0.00 in0.0 mm 0.00 in0.0 mm 0.00 in0.0 mm
05:15 PM 38.7°F3.7°C 35.4°F1.9°C 88% 4.0 mph NE6.4 kmh NE 9.0 mph14.5 kmh 30.20 in1022.7 mb 0.00 in0.0 mm 0.00 in0.0 mm 0.00 in0.0 mm
05:30 PM 38.8°F3.8°C 35.6°F2.0°C 88% 4.0 mph NE6.4 kmh NE 9.0 mph14.5 kmh 30.20 in1022.7 mb 0.00 in0.0 mm 0.00 in0.0 mm 0.00 in0.0 mm
05:45 PM 38.8°F3.8°C 35.9°F2.2°C 89% 3.0 mph NE4.8 kmh NE 6.0 mph9.7 kmh 30.21 in1023.0 mb 0.00 in0.0 mm 0.00 in0.0 mm 0.00 in0.0 mm
06:00 PM 38.7°F3.7°C 35.4°F1.9°C 88% 5.0 mph NE8.0 kmh NE 11.0 mph17.7 kmh 30.21 in1023.0 mb 0.00 in0.0 mm 0.00 in0.0 mm 0.00 in0.0 mm
06:15 PM 38.7°F3.7°C 35.4°F1.9°C 88% 5.0 mph NE8.0 kmh NE 14.0 mph22.5 kmh 30.21 in1023.0 mb 0.00 in0.0 mm 0.00 in0.0 mm 0.00 in0.0 mm
06:30 PM 38.7°F3.7°C 35.4°F1.9°C 88% 4.0 mph NE6.4 kmh NE 10.0 mph16.1 kmh 30.21 in1023.0 mb 0.00 in0.0 mm 0.00 in0.0 mm 0.00 in0.0 mm
06:45 PM 38.7°F3.7°C 35.4°F1.9°C 88% 5.0 mph NE8.0 kmh NE 11.0 mph17.7 kmh 30.21 in1023.0 mb 0.00 in0.0 mm 0.00 in0.0 mm 0.00 in0.0 mm
07:00 PM 38.7°F3.7°C 35.1°F1.7°C 87% 3.0 mph NE4.8 kmh NE 8.0 mph12.9 kmh 30.21 in1023.0 mb 0.00 in0.0 mm 0.00 in0.0 mm 0.00 in0.0 mm
07:15 PM 38.7°F3.7°C 35.1°F1.7°C 87% 3.0 mph NE4.8 kmh NE 8.0 mph12.9 kmh 30.22 in1023.4 mb 0.00 in0.0 mm 0.00 in0.0 mm 0.00 in0.0 mm
07:30 PM 38.7°F3.7°C 35.4°F1.9°C 88% 3.0 mph NE4.8 kmh NE 8.0 mph12.9 kmh 30.22 in1023.4 mb 0.00 in0.0 mm 0.00 in0.0 mm 0.00 in0.0 mm
07:45 PM 38.7°F3.7°C 35.4°F1.9°C 88% 3.0 mph NE4.8 kmh NE 7.0 mph11.3 kmh 30.23 in1023.7 mb 0.00 in0.0 mm 0.00 in0.0 mm 0.00 in0.0 mm
08:00 PM 38.7°F3.7°C 35.7°F2.1°C 89% 3.0 mph NE4.8 kmh NE 6.0 mph9.7 kmh 30.23 in1023.7 mb 0.00 in0.0 mm 0.00 in0.0 mm 0.00 in0.0 mm
08:15 PM 38.7°F3.7°C 35.7°F2.1°C 89% 3.0 mph NE4.8 kmh NE 7.0 mph11.3 kmh 30.23 in1023.7 mb 0.00 in0.0 mm 0.00 in0.0 mm 0.00 in0.0 mm
08:30 PM 38.7°F3.7°C 35.7°F2.1°C 89% 3.0 mph NE4.8 kmh NE 7.0 mph11.3 kmh 30.22 in1023.4 mb 0.00 in0.0 mm 0.00 in0.0 mm 0.00 in0.0 mm
08:45 PM 38.7°F3.7°C 36.0°F2.2°C 90% 2.0 mph NE3.2 kmh NE 6.0 mph9.7 kmh 30.21 in1023.0 mb 0.00 in0.0 mm 0.00 in0.0 mm 0.00 in0.0 mm
09:00 PM 38.5°F3.6°C 35.5°F1.9°C 89% 2.0 mph NE3.2 kmh NE 6.0 mph9.7 kmh 30.21 in1023.0 mb 0.00 in0.0 mm 0.00 in0.0 mm 0.00 in0.0 mm
09:15 PM 38.5°F3.6°C 35.5°F1.9°C 89% 3.0 mph NE4.8 kmh NE 8.0 mph12.9 kmh 30.21 in1023.0 mb 0.00 in0.0 mm 0.00 in0.0 mm 0.00 in0.0 mm
09:30 PM 38.5°F3.6°C 34.9°F1.6°C 87% 4.0 mph NE6.4 kmh NE 12.0 mph19.3 kmh 30.21 in1023.0 mb 0.00 in0.0 mm 0.00 in0.0 mm 0.00 in0.0 mm
09:45 PM 38.7°F3.7°C 35.1°F1.7°C 87% 4.0 mph NE6.4 kmh NE 11.0 mph17.7 kmh 30.21 in1023.0 mb 0.00 in0.0 mm 0.00 in0.0 mm 0.00 in0.0 mm
10:00 PM 38.5°F3.6°C 34.9°F1.6°C 87% 3.0 mph ENE4.8 kmh ENE 8.0 mph12.9 kmh 30.22 in1023.4 mb 0.00 in0.0 mm 0.00 in0.0 mm 0.00 in0.0 mm
10:15 PM 38.3°F3.5°C 34.8°F1.6°C 87% 2.0 mph NE3.2 kmh NE 3.0 mph4.8 kmh 30.21 in1023.0 mb 0.00 in0.0 mm 0.00 in0.0 mm 0.00 in0.0 mm
10:30 PM 37.9°F3.3°C 34.7°F1.5°C 88% 2.0 mph NE3.2 kmh NE 4.0 mph6.4 kmh 30.21 in1023.0 mb 0.00 in0.0 mm 0.00 in0.0 mm 0.00 in0.0 mm
10:45 PM 37.4°F3.0°C 34.2°F1.2°C 88% 2.0 mph NE3.2 kmh NE 5.0 mph8.0 kmh 30.20 in1022.7 mb 0.00 in0.0 mm 0.00 in0.0 mm 0.00 in0.0 mm
11:00 PM 37.0°F2.8°C 34.1°F1.2°C 89% 3.0 mph NE4.8 kmh NE 5.0 mph8.0 kmh 30.19 in1022.4 mb 0.00 in0.0 mm 0.00 in0.0 mm 0.00 in0.0 mm
11:15 PM 37.0°F2.8°C 34.1°F1.2°C 89% 3.0 mph NE4.8 kmh NE 7.0 mph11.3 kmh 30.18 in1022.0 mb 0.00 in0.0 mm 0.00 in0.0 mm 0.00 in0.0 mm
11:30 PM 37.2°F2.9°C 34.3°F1.3°C 89% 2.0 mph NE3.2 kmh NE 7.0 mph11.3 kmh 30.18 in1022.0 mb 0.00 in0.0 mm 0.00 in0.0 mm 0.00 in0.0 mm
11:45 PM 37.4°F3.0°C 34.2°F1.2°C 88% 2.0 mph NE3.2 kmh NE 5.0 mph8.0 kmh 30.17 in1021.7 mb 0.00 in0.0 mm 0.00 in0.0 mm 0.00 in0.0 mm